Time;durP1;ratioP1;P1;durP2;ratioP2;P2;SDS_P1;SDS_P2;PMS_P1;PMS_P2;Temp;Humidity;BMP_temperature;BMP_pressure;BME280_temperature;BME280_humidity;BME280_pressure;Samples;Min_cycle;Max_cycle;Signal;HPM_P1;HPM_P2
2021/11/28 00:00:18;;;;;;;3.43;2.67;;;;;;;;;;5032786;28;20889;-62
2021/11/28 00:02:45;;;;;;;6.40;3.80;;;;;;;;;;5032517;28;20537;-62
2021/11/28 00:05:13;;;;;;;4.73;3.70;;;;;;;;;;5032736;28;20789;-62
2021/11/28 00:15:03;;;;;;;5.23;3.80;;;;;;;;;;5032824;28;20457;-62
2021/11/28 00:17:29;;;;;;;4.13;3.00;;;;;;;;;;5032481;28;20901;-64
2021/11/28 00:19:56;;;;;;;4.63;3.10;;;;;;;;;;5032658;28;20426;-63
2021/11/28 00:22:22;;;;;;;4.67;3.07;;;;;;;;;;5032535;28;20935;-63
2021/11/28 00:24:50;;;;;;;7.50;3.33;;;;;;;;;;5032803;28;20761;-63
2021/11/28 00:27:16;;;;;;;6.30;3.00;;;;;;;;;;5031316;28;20790;-62
2021/11/28 00:29:42;;;;;;;4.60;2.93;;;;;;;;;;5034921;28;20898;-62
2021/11/28 00:32:08;;;;;;;3.27;2.67;;;;;;;;;;5036228;28;20410;-62
2021/11/28 00:34:34;;;;;;;4.33;3.07;;;;;;;;;;5038858;28;20469;-63
2021/11/28 00:37:01;;;;;;;4.23;2.90;;;;;;;;;;5042322;28;20919;-62
2021/11/28 00:39:27;;;;;;;3.50;2.67;;;;;;;;;;5042006;28;20936;-63
2021/11/28 00:41:53;;;;;;;3.87;2.93;;;;;;;;;;5041520;28;20469;-63
2021/11/28 00:44:19;;;;;;;5.00;2.53;;;;;;;;;;5041110;28;20431;-61
2021/11/28 00:46:45;;;;;;;3.20;2.90;;;;;;;;;;5041862;28;20399;-63
2021/11/28 00:49:15;;;;;;;3.73;2.63;;;;;;;;;;5041554;28;20407;-63
2021/11/28 00:51:50;;;;;;;4.97;3.37;;;;;;;;;;5041583;28;20384;-63
2021/11/28 00:54:17;;;;;;;4.03;2.73;;;;;;;;;;5042142;28;20462;-63
2021/11/28 00:56:43;;;;;;;3.90;2.60;;;;;;;;;;5042661;28;20425;-62
2021/11/28 00:59:09;;;;;;;4.90;2.83;;;;;;;;;;5042123;28;20530;-62
2021/11/28 01:01:35;;;;;;;4.33;3.60;;;;;;;;;;5042286;28;20418;-64
2021/11/28 01:04:02;;;;;;;4.10;2.70;;;;;;;;;;5042720;28;20426;-64
2021/11/28 01:06:28;;;;;;;4.70;3.50;;;;;;;;;;5042662;28;20406;-63
2021/11/28 01:08:55;;;;;;;4.30;3.17;;;;;;;;;;5042051;28;20419;-63
2021/11/28 01:11:23;;;;;;;4.30;2.63;;;;;;;;;;5041433;28;20438;-63
2021/11/28 01:13:49;;;;;;;3.73;2.97;;;;;;;;;;5041475;28;21746;-63
2021/11/28 01:16:15;;;;;;;5.07;3.10;;;;;;;;;;5041866;28;20417;-64
2021/11/28 01:18:41;;;;;;;4.60;3.50;;;;;;;;;;5041810;28;20442;-64
2021/11/28 01:21:07;;;;;;;4.60;2.90;;;;;;;;;;5042250;28;20418;-64
2021/11/28 01:23:34;;;;;;;4.13;2.80;;;;;;;;;;5042223;28;20827;-64
2021/11/28 01:26:00;;;;;;;7.17;3.00;;;;;;;;;;5042051;28;20423;-63
2021/11/28 01:28:26;;;;;;;3.63;2.23;;;;;;;;;;5041325;28;20413;-64
2021/11/28 01:30:52;;;;;;;3.83;3.10;;;;;;;;;;5041445;28;20403;-64
2021/11/28 01:33:18;;;;;;;6.87;2.80;;;;;;;;;;5041347;28;20414;-63
2021/11/28 01:35:44;;;;;;;4.03;2.80;;;;;;;;;;5040883;28;20442;-63
2021/11/28 01:38:11;;;;;;;3.77;2.70;;;;;;;;;;5040620;28;20402;-63
2021/11/28 01:40:37;;;;;;;3.53;2.73;;;;;;;;;;5040906;28;20692;-63
2021/11/28 01:43:05;;;;;;;5.37;2.90;;;;;;;;;;5041515;28;20458;-62
2021/11/28 01:45:32;;;;;;;3.40;2.60;;;;;;;;;;5041140;28;20434;-62
2021/11/28 01:47:59;;;;;;;3.30;2.70;;;;;;;;;;5040381;28;20391;-62
2021/11/28 01:50:27;;;;;;;4.07;3.10;;;;;;;;;;5040181;28;20403;-62
2021/11/28 01:52:53;;;;;;;4.20;2.70;;;;;;;;;;5040279;28;20403;-62
2021/11/28 01:55:21;;;;;;;11.13;2.83;;;;;;;;;;5041429;28;20473;-62
2021/11/28 01:57:47;;;;;;;3.23;2.40;;;;;;;;;;5041810;28;20410;-63
2021/11/28 02:00:15;;;;;;;3.40;2.27;;;;;;;;;;5042092;28;20407;-62
2021/11/28 02:02:42;;;;;;;3.77;2.60;;;;;;;;;;5040976;28;20461;-62
2021/11/28 02:05:08;;;;;;;3.90;2.57;;;;;;;;;;5041583;28;20514;-62
2021/11/28 02:07:34;;;;;;;4.37;2.23;;;;;;;;;;5041440;28;20407;-62
2021/11/28 02:10:01;;;;;;;4.70;2.57;;;;;;;;;;5041639;28;20415;-62
2021/11/28 02:12:29;;;;;;;2.90;2.27;;;;;;;;;;5040921;28;20407;-63
2021/11/28 02:14:59;;;;;;;4.10;2.20;;;;;;;;;;5040684;28;21002;-63
2021/11/28 02:17:26;;;;;;;3.83;2.37;;;;;;;;;;5040819;28;20407;-62
2021/11/28 02:19:52;;;;;;;6.23;2.90;;;;;;;;;;5040561;28;20437;-62
2021/11/28 02:22:18;;;;;;;3.73;2.40;;;;;;;;;;5039966;28;20465;-64
2021/11/28 02:24:44;;;;;;;4.27;2.37;;;;;;;;;;5044820;28;20513;-62
2021/11/28 02:27:10;;;;;;;3.20;2.77;;;;;;;;;;5051367;28;20406;-62
2021/11/28 02:29:40;;;;;;;3.40;2.50;;;;;;;;;;5052806;28;20421;-62
2021/11/28 02:32:06;;;;;;;5.57;2.70;;;;;;;;;;5053891;28;20401;-63
2021/11/28 02:34:32;;;;;;;4.70;2.47;;;;;;;;;;5053725;28;20430;-62
2021/11/28 02:36:58;;;;;;;3.40;2.17;;;;;;;;;;5054018;28;20406;-63
2021/11/28 02:39:24;;;;;;;3.00;2.40;;;;;;;;;;5053708;28;20485;-61
2021/11/28 02:41:51;;;;;;;2.80;2.23;;;;;;;;;;5053815;28;20394;-63
2021/11/28 02:44:17;;;;;;;7.10;2.40;;;;;;;;;;5053681;28;20497;-63
2021/11/28 02:46:44;;;;;;;3.30;2.10;;;;;;;;;;5053859;28;20425;-62
2021/11/28 02:49:11;;;;;;;2.53;2.03;;;;;;;;;;5053810;28;20463;-64
2021/11/28 02:51:38;;;;;;;3.73;2.10;;;;;;;;;;5053096;28;20402;-63
2021/11/28 02:54:04;;;;;;;4.10;2.50;;;;;;;;;;5053410;28;20440;-62
2021/11/28 02:56:30;;;;;;;4.50;3.10;;;;;;;;;;5053856;28;20803;-61
2021/11/28 02:58:56;;;;;;;3.87;3.00;;;;;;;;;;5053328;28;20402;-63
2021/11/28 03:01:23;;;;;;;3.80;2.73;;;;;;;;;;5053270;28;20607;-63
2021/11/28 03:03:52;;;;;;;5.17;2.60;;;;;;;;;;5052949;28;20453;-63
2021/11/28 03:06:18;;;;;;;10.80;2.17;;;;;;;;;;5052947;28;20493;-63
2021/11/28 03:08:45;;;;;;;3.10;2.47;;;;;;;;;;5052978;28;20911;-62
2021/11/28 03:11:12;;;;;;;5.07;2.53;;;;;;;;;;5053192;28;20420;-64
2021/11/28 03:13:41;;;;;;;3.20;2.40;;;;;;;;;;5053329;28;20429;-65
2021/11/28 03:16:09;;;;;;;4.07;2.70;;;;;;;;;;5052959;28;20398;-64
2021/11/28 03:18:35;;;;;;;3.43;2.40;;;;;;;;;;5052847;28;20543;-65
2021/11/28 03:21:06;;;;;;;3.60;2.90;;;;;;;;;;5052940;28;20484;-63
2021/11/28 03:23:33;;;;;;;3.73;2.70;;;;;;;;;;5052691;28;20450;-64
2021/11/28 03:26:16;;;;;;;3.90;2.87;;;;;;;;;;5052761;28;20405;-63
2021/11/28 03:28:44;;;;;;;4.63;2.43;;;;;;;;;;5051470;28;20842;-65
2021/11/28 03:31:10;;;;;;;3.27;2.50;;;;;;;;;;5052771;28;20425;-65
2021/11/28 03:33:37;;;;;;;4.50;2.60;;;;;;;;;;5052541;28;20447;-65
2021/11/28 03:36:03;;;;;;;5.73;2.37;;;;;;;;;;5053037;28;20426;-64
2021/11/28 03:38:29;;;;;;;4.00;2.23;;;;;;;;;;5052614;28;20409;-63
2021/11/28 03:40:55;;;;;;;3.90;2.50;;;;;;;;;;5052583;28;20433;-64
2021/11/28 03:43:22;;;;;;;2.80;2.30;;;;;;;;;;5052676;28;20476;-63
2021/11/28 03:45:48;;;;;;;3.60;2.90;;;;;;;;;;5052749;28;20430;-63
2021/11/28 03:48:14;;;;;;;4.90;2.63;;;;;;;;;;5052491;28;20429;-64
2021/11/28 03:50:40;;;;;;;6.30;3.30;;;;;;;;;;5052514;28;20405;-64
2021/11/28 03:53:07;;;;;;;3.27;2.47;;;;;;;;;;5052536;28;20497;-64
2021/11/28 03:55:33;;;;;;;3.80;2.57;;;;;;;;;;5049959;28;20452;-64
2021/11/28 03:57:59;;;;;;;7.33;2.87;;;;;;;;;;5043710;28;20402;-63
2021/11/28 04:00:25;;;;;;;4.67;3.30;;;;;;;;;;5052322;28;20398;-63
2021/11/28 04:02:51;;;;;;;3.40;2.60;;;;;;;;;;5051235;28;20544;-63
2021/11/28 04:05:17;;;;;;;3.53;2.60;;;;;;;;;;5055939;28;20859;-63
2021/11/28 04:07:43;;;;;;;3.67;2.50;;;;;;;;;;5056804;28;20425;-63
2021/11/28 04:10:10;;;;;;;5.73;2.73;;;;;;;;;;5056516;28;20418;-64
2021/11/28 04:12:36;;;;;;;3.70;2.70;;;;;;;;;;5056617;28;20592;-63
2021/11/28 04:15:03;;;;;;;2.73;2.10;;;;;;;;;;5055045;28;20422;-63
2021/11/28 04:17:29;;;;;;;4.40;2.70;;;;;;;;;;5056215;28;20401;-63
2021/11/28 04:19:55;;;;;;;3.80;2.30;;;;;;;;;;5056246;28;20405;-63
2021/11/28 04:22:21;;;;;;;3.17;2.60;;;;;;;;;;5056655;28;20613;-63
2021/11/28 04:24:48;;;;;;;3.70;2.63;;;;;;;;;;5056220;28;20421;-64
2021/11/28 04:27:14;;;;;;;5.70;2.43;;;;;;;;;;5061528;28;20918;-63
2021/11/28 04:29:41;;;;;;;3.10;2.37;;;;;;;;;;5061514;28;20467;-63
2021/11/28 04:32:07;;;;;;;2.40;2.00;;;;;;;;;;5062422;28;20410;-63
2021/11/28 04:34:33;;;;;;;2.17;1.97;;;;;;;;;;5061675;28;20505;-63
2021/11/28 04:37:00;;;;;;;4.37;2.17;;;;;;;;;;5063015;28;20414;-63
2021/11/28 04:39:26;;;;;;;2.27;2.07;;;;;;;;;;5062896;28;20440;-63
2021/11/28 04:41:52;;;;;;;3.07;2.20;;;;;;;;;;5059500;28;20528;-63
2021/11/28 04:44:18;;;;;;;3.17;2.30;;;;;;;;;;5042346;28;20461;-63
2021/11/28 04:46:44;;;;;;;4.10;2.40;;;;;;;;;;5042871;28;20417;-63
2021/11/28 04:49:11;;;;;;;3.50;2.57;;;;;;;;;;5061476;28;20902;-65
2021/11/28 04:51:37;;;;;;;4.40;2.50;;;;;;;;;;5060926;28;20405;-63
2021/11/28 04:54:03;;;;;;;3.30;1.90;;;;;;;;;;5062718;28;20430;-63
2021/11/28 04:56:29;;;;;;;2.20;1.90;;;;;;;;;;5061617;28;20393;-63
2021/11/28 04:58:56;;;;;;;2.70;2.03;;;;;;;;;;5062181;28;20413;-63
2021/11/28 05:01:23;;;;;;;3.43;2.17;;;;;;;;;;5061314;28;20489;-63
2021/11/28 05:03:49;;;;;;;2.50;2.17;;;;;;;;;;5062633;28;20450;-63
2021/11/28 05:06:15;;;;;;;5.10;2.30;;;;;;;;;;5062496;28;20473;-63
2021/11/28 05:08:41;;;;;;;3.73;2.87;;;;;;;;;;5062505;28;20441;-63
2021/11/28 05:11:07;;;;;;;3.37;2.57;;;;;;;;;;5062493;28;20497;-63
2021/11/28 05:13:33;;;;;;;2.40;2.03;;;;;;;;;;5061926;28;20409;-63
2021/11/28 05:16:00;;;;;;;3.43;2.97;;;;;;;;;;5060850;28;20413;-63
2021/11/28 05:18:26;;;;;;;2.47;2.10;;;;;;;;;;5061224;28;20406;-63
2021/11/28 05:20:52;;;;;;;2.60;2.30;;;;;;;;;;5061316;28;20406;-63
2021/11/28 05:23:18;;;;;;;2.77;2.40;;;;;;;;;;5100504;23;20492;-64
2021/11/28 05:25:44;;;;;;;5.43;2.63;;;;;;;;;;5055390;28;20398;-63
2021/11/28 05:28:11;;;;;;;2.67;2.43;;;;;;;;;;5055463;28;20410;-64
2021/11/28 05:30:38;;;;;;;3.20;2.40;;;;;;;;;;5055385;28;20899;-64
2021/11/28 05:33:05;;;;;;;2.70;2.10;;;;;;;;;;5054998;28;20444;-63
2021/11/28 05:35:31;;;;;;;3.40;2.63;;;;;;;;;;5055031;28;20892;-64
2021/11/28 05:37:57;;;;;;;2.63;2.43;;;;;;;;;;5055015;28;20485;-63
2021/11/28 05:40:23;;;;;;;2.63;2.30;;;;;;;;;;5054929;28;20897;-63
2021/11/28 05:42:52;;;;;;;3.10;2.40;;;;;;;;;;5054778;28;20457;-63
2021/11/28 05:45:20;;;;;;;3.07;2.17;;;;;;;;;;5055046;28;20492;-63
2021/11/28 05:47:46;;;;;;;2.83;2.47;;;;;;;;;;5054705;28;20485;-63
2021/11/28 05:50:12;;;;;;;3.23;2.37;;;;;;;;;;5053402;28;20733;-63
2021/11/28 05:52:39;;;;;;;3.10;2.17;;;;;;;;;;5054918;28;20430;-64
2021/11/28 05:55:05;;;;;;;3.40;2.50;;;;;;;;;;5053219;28;20776;-64
2021/11/28 05:57:32;;;;;;;2.17;1.73;;;;;;;;;;5054889;28;20467;-62
2021/11/28 05:59:58;;;;;;;5.27;2.20;;;;;;;;;;5054703;28;20880;-62
2021/11/28 06:02:24;;;;;;;6.73;2.73;;;;;;;;;;5054438;28;20499;-62
2021/11/28 06:04:50;;;;;;;3.67;2.30;;;;;;;;;;5054422;28;20479;-62
2021/11/28 06:07:16;;;;;;;6.50;2.77;;;;;;;;;;5054598;28;20394;-63
2021/11/28 06:09:42;;;;;;;3.53;2.43;;;;;;;;;;5054584;28;20520;-62
2021/11/28 06:12:09;;;;;;;3.70;2.90;;;;;;;;;;5054229;28;20406;-63
2021/11/28 06:14:35;;;;;;;5.40;2.83;;;;;;;;;;5054120;28;20426;-62
2021/11/28 06:17:01;;;;;;;3.37;2.50;;;;;;;;;;5054196;28;20402;-62
2021/11/28 06:19:28;;;;;;;3.67;2.53;;;;;;;;;;5054106;28;20544;-62
2021/11/28 06:21:54;;;;;;;3.87;2.70;;;;;;;;;;5054013;28;20555;-62
2021/11/28 06:24:20;;;;;;;3.13;2.27;;;;;;;;;;5053840;28;20442;-64
2021/11/28 06:26:46;;;;;;;4.47;3.00;;;;;;;;;;5053116;28;20895;-62
2021/11/28 06:29:12;;;;;;;2.83;2.50;;;;;;;;;;5054025;28;20402;-62
2021/11/28 06:31:39;;;;;;;3.27;2.60;;;;;;;;;;5053936;28;20751;-62
2021/11/28 06:34:06;;;;;;;4.43;2.87;;;;;;;;;;5053830;28;20555;-62
2021/11/28 06:36:32;;;;;;;2.10;1.90;;;;;;;;;;5053770;28;20421;-62
2021/11/28 06:38:58;;;;;;;3.43;3.03;;;;;;;;;;5053643;28;20406;-62
2021/11/28 06:41:26;;;;;;;7.73;3.17;;;;;;;;;;5053507;28;20405;-61
2021/11/28 06:43:53;;;;;;;2.87;2.40;;;;;;;;;;5053726;28;20532;-61
2021/11/28 06:46:19;;;;;;;4.20;3.13;;;;;;;;;;5053455;28;20493;-61
2021/11/28 06:48:45;;;;;;;11.40;3.80;;;;;;;;;;5053530;28;20918;-63
2021/11/28 06:51:11;;;;;;;6.37;4.17;;;;;;;;;;5053501;28;20446;-62
2021/11/28 06:53:37;;;;;;;4.40;2.93;;;;;;;;;;5053619;28;20461;-62
2021/11/28 06:56:04;;;;;;;4.57;3.07;;;;;;;;;;5053534;28;20406;-62
2021/11/28 06:58:33;;;;;;;7.83;3.33;;;;;;;;;;5053375;28;20410;-62
2021/11/28 07:00:59;;;;;;;3.67;2.83;;;;;;;;;;5053383;28;20496;-62
2021/11/28 07:03:26;;;;;;;3.30;2.53;;;;;;;;;;5053708;28;20460;-62
2021/11/28 07:05:52;;;;;;;5.00;3.43;;;;;;;;;;5053253;28;20877;-62
2021/11/28 07:08:18;;;;;;;3.63;2.57;;;;;;;;;;5053328;28;20409;-62
2021/11/28 07:10:44;;;;;;;3.83;2.90;;;;;;;;;;5053386;28;20406;-62
2021/11/28 07:13:10;;;;;;;4.50;2.73;;;;;;;;;;5053491;28;20418;-62
2021/11/28 07:15:37;;;;;;;5.17;3.00;;;;;;;;;;5053993;28;20780;-62
2021/11/28 07:18:04;;;;;;;3.57;2.70;;;;;;;;;;5053122;28;20398;-62
2021/11/28 07:20:31;;;;;;;4.40;3.10;;;;;;;;;;5053167;28;20417;-62
2021/11/28 07:22:58;;;;;;;5.40;2.93;;;;;;;;;;5053216;28;20975;-62
2021/11/28 07:25:25;;;;;;;4.33;2.80;;;;;;;;;;5053252;28;20430;-62
2021/11/28 07:27:52;;;;;;;4.47;2.77;;;;;;;;;;5053169;28;20450;-62
2021/11/28 07:30:18;;;;;;;3.47;3.17;;;;;;;;;;5052931;28;20397;-64
2021/11/28 07:32:44;;;;;;;3.60;2.63;;;;;;;;;;5052937;28;20433;-62
2021/11/28 07:35:10;;;;;;;6.93;2.93;;;;;;;;;;5053227;28;20406;-62
2021/11/28 07:37:37;;;;;;;4.03;2.87;;;;;;;;;;5052888;28;20467;-62
2021/11/28 07:40:04;;;;;;;4.43;2.90;;;;;;;;;;5052597;28;20430;-62
2021/11/28 07:42:30;;;;;;;4.83;3.23;;;;;;;;;;5052309;28;20532;-64
2021/11/28 07:44:56;;;;;;;5.20;2.60;;;;;;;;;;5051289;28;20915;-62
2021/11/28 07:47:22;;;;;;;4.70;3.17;;;;;;;;;;5052627;28;20444;-63
2021/11/28 07:49:48;;;;;;;3.10;2.47;;;;;;;;;;5052629;28;20640;-63
2021/11/28 07:52:14;;;;;;;6.40;2.77;;;;;;;;;;5052590;28;20455;-63
2021/11/28 07:54:40;;;;;;;5.30;2.40;;;;;;;;;;5052254;28;20413;-64
2021/11/28 07:57:06;;;;;;;4.07;2.50;;;;;;;;;;5052583;28;20402;-63
2021/11/28 07:59:37;;;;;;;5.10;2.83;;;;;;;;;;5052319;28;20489;-63
2021/11/28 08:02:03;;;;;;;2.80;2.20;;;;;;;;;;5052525;28;20412;-63
2021/11/28 08:04:30;;;;;;;3.50;2.10;;;;;;;;;;5052334;28;20410;-63
2021/11/28 08:06:56;;;;;;;2.90;2.10;;;;;;;;;;5052315;28;20907;-63
2021/11/28 08:09:22;;;;;;;3.20;2.50;;;;;;;;;;5052321;28;20856;-63
2021/11/28 08:11:48;;;;;;;4.93;2.20;;;;;;;;;;5052498;28;20509;-63
2021/11/28 08:14:14;;;;;;;3.43;2.47;;;;;;;;;;5052119;28;20425;-63
2021/11/28 08:16:40;;;;;;;2.53;2.00;;;;;;;;;;5052163;28;20923;-66
2021/11/28 08:19:06;;;;;;;2.83;1.80;;;;;;;;;;5052494;28;20889;-64
2021/11/28 08:21:33;;;;;;;2.47;2.20;;;;;;;;;;5052329;28;20428;-64
2021/11/28 08:24:02;;;;;;;3.10;2.27;;;;;;;;;;5051948;28;20530;-63
2021/11/28 08:26:28;;;;;;;4.33;2.50;;;;;;;;;;5049839;28;20425;-64
2021/11/28 08:28:55;;;;;;;5.60;2.67;;;;;;;;;;5047465;28;20410;-66
2021/11/28 08:31:21;;;;;;;4.87;2.40;;;;;;;;;;5050336;28;20425;-67
2021/11/28 08:33:48;;;;;;;3.60;2.20;;;;;;;;;;5051459;28;20510;-65
2021/11/28 08:36:18;;;;;;;2.77;2.30;;;;;;;;;;5051316;28;20425;-65
2021/11/28 08:38:44;;;;;;;8.60;3.10;;;;;;;;;;5051395;28;20560;-66
2021/11/28 08:41:11;;;;;;;3.43;2.37;;;;;;;;;;5049532;28;20485;-67
2021/11/28 08:43:38;;;;;;;5.87;2.50;;;;;;;;;;5048094;28;20461;-66
2021/11/28 08:46:04;;;;;;;3.13;2.17;;;;;;;;;;5030829;28;20490;-65
2021/11/28 08:48:30;;;;;;;2.43;1.93;;;;;;;;;;5032070;28;20426;-65
2021/11/28 08:50:57;;;;;;;2.93;2.50;;;;;;;;;;5034881;28;20492;-65
2021/11/28 08:53:23;;;;;;;7.43;3.10;;;;;;;;;;5035709;28;20481;-65
2021/11/28 08:55:49;;;;;;;7.27;3.33;;;;;;;;;;5035744;28;20417;-65
2021/11/28 08:58:16;;;;;;;3.87;2.57;;;;;;;;;;5035598;28;20411;-65
2021/11/28 09:00:42;;;;;;;3.30;2.67;;;;;;;;;;5035578;28;20403;-65
2021/11/28 09:03:08;;;;;;;2.87;2.50;;;;;;;;;;5035420;28;20604;-65
2021/11/28 09:05:34;;;;;;;3.27;2.57;;;;;;;;;;5034188;28;20421;-65
2021/11/28 09:08:00;;;;;;;4.00;2.80;;;;;;;;;;5035936;28;20394;-65
2021/11/28 09:10:27;;;;;;;3.60;2.43;;;;;;;;;;5035407;28;20411;-65
2021/11/28 09:12:53;;;;;;;3.03;2.73;;;;;;;;;;5033877;28;20435;-65
2021/11/28 09:15:20;;;;;;;4.03;2.40;;;;;;;;;;5035410;28;20426;-65
2021/11/28 09:17:57;;;;;;;3.00;1.90;;;;;;;;;;5035270;28;20411;-65
2021/11/28 09:20:24;;;;;;;4.47;2.43;;;;;;;;;;5035376;28;20383;-65
2021/11/28 09:25:18;;;;;;;3.00;2.70;;;;;;;;;;5035281;28;20371;-65
2021/11/28 09:27:48;;;;;;;4.33;2.37;;;;;;;;;;5035248;28;20410;-65
2021/11/28 09:30:15;;;;;;;4.57;2.43;;;;;;;;;;5035350;28;20589;-65
2021/11/28 09:32:41;;;;;;;2.70;2.07;;;;;;;;;;5033795;28;20438;-66
2021/11/28 09:35:07;;;;;;;2.90;2.43;;;;;;;;;;5035107;28;20490;-65
2021/11/28 09:37:33;;;;;;;3.53;1.90;;;;;;;;;;5035026;28;20846;-65
2021/11/28 09:39:59;;;;;;;2.47;1.87;;;;;;;;;;5034924;28;20449;-65
2021/11/28 09:42:29;;;;;;;2.60;1.40;;;;;;;;;;5034908;28;20952;-65
2021/11/28 09:44:56;;;;;;;2.73;1.83;;;;;;;;;;5035107;28;20403;-65
2021/11/28 09:47:23;;;;;;;3.20;2.23;;;;;;;;;;5034755;28;20858;-65
2021/11/28 09:49:49;;;;;;;6.30;2.23;;;;;;;;;;5034841;28;20403;-65
2021/11/28 09:52:19;;;;;;;3.17;2.43;;;;;;;;;;5034724;28;20476;-66
2021/11/28 09:54:46;;;;;;;3.10;2.20;;;;;;;;;;5034612;28;20407;-66
2021/11/28 09:57:16;;;;;;;3.10;2.13;;;;;;;;;;5034634;28;20406;-65
2021/11/28 09:59:47;;;;;;;4.53;2.20;;;;;;;;;;5033369;28;20403;-63
2021/11/28 10:02:32;;;;;;;2.50;1.93;;;;;;;;;;5032122;28;20414;-64
2021/11/28 10:05:01;;;;;;;2.93;2.10;;;;;;;;;;5034810;28;20402;-64
2021/11/28 10:07:27;;;;;;;4.40;2.50;;;;;;;;;;5035082;28;20395;-64
2021/11/28 10:09:53;;;;;;;4.27;2.10;;;;;;;;;;5034630;28;20422;-64
2021/11/28 10:12:19;;;;;;;2.60;2.20;;;;;;;;;;5034259;28;20472;-64
2021/11/28 10:14:48;;;;;;;2.60;2.23;;;;;;;;;;5034256;28;20403;-64
2021/11/28 10:17:14;;;;;;;3.40;2.80;;;;;;;;;;5034658;28;20460;-64
2021/11/28 10:19:41;;;;;;;5.10;2.10;;;;;;;;;;5034144;28;20448;-64
2021/11/28 10:22:07;;;;;;;2.87;2.00;;;;;;;;;;5034237;28;20394;-64
2021/11/28 10:24:34;;;;;;;2.80;2.50;;;;;;;;;;5033101;28;20446;-64
2021/11/28 10:27:10;;;;;;;2.73;2.17;;;;;;;;;;5034693;28;20425;-64
2021/11/28 10:29:40;;;;;;;4.73;2.50;;;;;;;;;;5034203;28;20407;-64
2021/11/28 10:32:11;;;;;;;5.20;2.40;;;;;;;;;;5033952;28;20465;-64
2021/11/28 10:34:39;;;;;;;5.63;2.20;;;;;;;;;;5033856;28;20418;-63
2021/11/28 10:37:07;;;;;;;3.33;2.27;;;;;;;;;;5033927;28;20470;-66
2021/11/28 10:40:02;;;;;;;2.80;2.50;;;;;;;;;;5034126;28;20399;-64
2021/11/28 10:42:33;;;;;;;3.27;2.50;;;;;;;;;;5016895;28;20943;-65
2021/11/28 10:45:07;;;;;;;3.43;2.20;;;;;;;;;;5032167;28;20550;-65
2021/11/28 10:47:35;;;;;;;3.10;2.30;;;;;;;;;;5033481;28;20427;-65
2021/11/28 10:50:27;;;;;;;3.87;2.60;;;;;;;;;;5033499;28;20403;-65
2021/11/28 10:53:03;;;;;;;3.30;2.00;;;;;;;;;;5029853;28;20986;-65
2021/11/28 10:55:33;;;;;;;7.90;2.70;;;;;;;;;;5033452;28;20383;-66
2021/11/28 10:58:13;;;;;;;4.50;2.07;;;;;;;;;;5033384;28;20485;-65
2021/11/28 11:00:41;;;;;;;4.77;3.40;;;;;;;;;;5033668;28;20402;-66
2021/11/28 11:03:13;;;;;;;4.50;2.63;;;;;;;;;;5033029;28;20470;-65
2021/11/28 11:05:39;;;;;;;4.07;3.03;;;;;;;;;;5033472;28;20426;-65
2021/11/28 11:08:05;;;;;;;3.13;2.47;;;;;;;;;;5033211;28;20897;-65
2021/11/28 11:10:35;;;;;;;4.20;2.40;;;;;;;;;;5033020;28;20399;-65
2021/11/28 11:13:01;;;;;;;3.73;2.57;;;;;;;;;;5032523;28;20423;-65
2021/11/28 11:15:32;;;;;;;8.43;4.77;;;;;;;;;;5033259;28;20458;-65
2021/11/28 11:17:59;;;;;;;3.60;2.63;;;;;;;;;;5033192;28;20410;-65
2021/11/28 11:20:26;;;;;;;3.83;2.97;;;;;;;;;;5033037;28;20422;-65
2021/11/28 11:22:52;;;;;;;6.40;4.50;;;;;;;;;;5049455;23;20554;-62
2021/11/28 11:25:19;;;;;;;6.90;3.43;;;;;;;;;;5076616;28;20424;-64
2021/11/28 11:27:45;;;;;;;3.23;2.90;;;;;;;;;;5075995;28;20543;-64
2021/11/28 11:30:13;;;;;;;5.70;3.40;;;;;;;;;;5075599;28;20861;-64
2021/11/28 11:32:49;;;;;;;4.00;2.17;;;;;;;;;;5076214;28;20402;-64
2021/11/28 11:35:26;;;;;;;4.07;3.53;;;;;;;;;;5077509;28;20479;-62
2021/11/28 11:37:55;;;;;;;6.30;3.60;;;;;;;;;;5075318;28;20453;-63
2021/11/28 11:40:23;;;;;;;5.67;3.80;;;;;;;;;;5076932;28;20409;-64
2021/11/28 11:42:52;;;;;;;3.90;3.30;;;;;;;;;;5078059;28;20950;-64
2021/11/28 11:45:19;;;;;;;4.93;3.40;;;;;;;;;;5078016;28;20410;-63
2021/11/28 11:47:45;;;;;;;3.20;2.10;;;;;;;;;;5078979;28;20392;-64
2021/11/28 11:50:16;;;;;;;5.47;3.30;;;;;;;;;;5078208;28;20445;-63
2021/11/28 11:52:42;;;;;;;4.40;3.60;;;;;;;;;;5078376;28;20939;-63
2021/11/28 11:55:08;;;;;;;5.07;2.97;;;;;;;;;;5078163;28;20898;-63
2021/11/28 11:57:38;;;;;;;4.67;3.63;;;;;;;;;;5078325;28;20891;-63
2021/11/28 12:00:08;;;;;;;3.03;2.70;;;;;;;;;;5077482;28;20421;-63
2021/11/28 12:02:39;;;;;;;5.20;3.60;;;;;;;;;;5077899;28;20436;-64
2021/11/28 12:05:24;;;;;;;6.77;3.53;;;;;;;;;;5077870;28;20466;-64
2021/11/28 12:07:54;;;;;;;4.77;3.10;;;;;;;;;;5078171;28;20482;-64
2021/11/28 12:10:39;;;;;;;4.53;2.70;;;;;;;;;;5077552;28;20415;-63
2021/11/28 12:13:08;;;;;;;4.83;3.50;;;;;;;;;;5077948;28;20412;-64
2021/11/28 12:15:39;;;;;;;4.70;4.00;;;;;;;;;;5077708;28;20496;-64
2021/11/28 12:18:06;;;;;;;5.93;3.30;;;;;;;;;;5078397;28;20385;-63
2021/11/28 12:20:44;;;;;;;6.03;3.53;;;;;;;;;;5077751;28;20399;-63
2021/11/28 12:23:33;;;;;;;4.40;3.17;;;;;;;;;;5078210;28;20456;-64
2021/11/28 12:25:59;;;;;;;6.83;4.33;;;;;;;;;;5081002;28;20400;-63
2021/11/28 12:28:33;;;;;;;4.00;3.60;;;;;;;;;;5081551;28;20396;-62
2021/11/28 12:31:00;;;;;;;4.47;3.90;;;;;;;;;;5082217;28;20450;-64
2021/11/28 12:33:45;;;;;;;3.60;3.03;;;;;;;;;;5081731;28;20425;-63
2021/11/28 12:36:31;;;;;;;4.20;2.90;;;;;;;;;;5081148;28;20396;-62
2021/11/28 12:38:59;;;;;;;4.63;3.10;;;;;;;;;;5081642;28;20392;-64
2021/11/28 12:41:52;;;;;;;3.70;3.20;;;;;;;;;;5081863;28;20420;-63
2021/11/28 12:44:20;;;;;;;5.20;2.70;;;;;;;;;;5080183;28;20473;-64
2021/11/28 12:46:46;;;;;;;5.00;2.70;;;;;;;;;;5081142;28;20400;-64
2021/11/28 12:49:31;;;;;;;3.80;3.07;;;;;;;;;;5081226;28;20448;-64
2021/11/28 12:52:17;;;;;;;4.90;3.30;;;;;;;;;;5081139;28;20739;-63
2021/11/28 12:54:45;;;;;;;10.30;3.33;;;;;;;;;;5081120;28;20841;-63
2021/11/28 12:57:20;;;;;;;3.50;2.80;;;;;;;;;;5080777;28;20416;-63
2021/11/28 13:00:18;;;;;;;5.23;3.50;;;;;;;;;;5080384;28;20759;-63
2021/11/28 13:02:48;;;;;;;7.37;3.33;;;;;;;;;;5076108;28;20448;-62
2021/11/28 13:05:34;;;;;;;7.40;3.93;;;;;;;;;;5080419;28;20409;-63
2021/11/28 13:08:06;;;;;;;8.53;4.47;;;;;;;;;;5080924;28;20473;-62
2021/11/28 13:10:33;;;;;;;8.50;4.43;;;;;;;;;;5080702;28;20763;-62
2021/11/28 13:13:04;;;;;;;5.20;3.73;;;;;;;;;;5080858;28;20420;-63
2021/11/28 13:15:32;;;;;;;8.60;4.17;;;;;;;;;;5079538;28;20393;-62
2021/11/28 13:17:59;;;;;;;9.60;4.43;;;;;;;;;;5078543;28;20539;-63
2021/11/28 13:20:25;;;;;;;5.40;4.00;;;;;;;;;;5080342;28;20524;-63
2021/11/28 13:22:51;;;;;;;7.37;4.33;;;;;;;;;;5078785;28;20448;-65
2021/11/28 13:25:30;;;;;;;9.50;5.20;;;;;;;;;;5079716;28;20389;-64
2021/11/28 13:28:02;;;;;;;8.70;5.63;;;;;;;;;;5080098;28;20393;-63
2021/11/28 13:30:37;;;;;;;7.13;4.47;;;;;;;;;;5079408;28;20454;-63
2021/11/28 13:33:15;;;;;;;5.97;4.30;;;;;;;;;;5078262;28;20482;-63
2021/11/28 13:35:42;;;;;;;5.90;4.40;;;;;;;;;;5078356;28;20496;-63
2021/11/28 13:38:11;;;;;;;6.60;4.17;;;;;;;;;;5078327;28;20822;-63
2021/11/28 13:40:37;;;;;;;4.87;4.17;;;;;;;;;;5076154;28;20420;-62
2021/11/28 13:43:03;;;;;;;6.67;4.70;;;;;;;;;;5079575;28;20463;-63
2021/11/28 13:45:29;;;;;;;6.97;4.70;;;;;;;;;;5077427;28;20413;-62
2021/11/28 13:47:56;;;;;;;7.40;4.27;;;;;;;;;;5074749;28;20416;-62
2021/11/28 13:50:22;;;;;;;8.90;4.20;;;;;;;;;;5075482;28;20414;-62
2021/11/28 13:52:48;;;;;;;5.03;3.80;;;;;;;;;;5080262;28;20405;-63
2021/11/28 13:55:14;;;;;;;6.30;4.30;;;;;;;;;;5081456;28;20919;-63
2021/11/28 13:57:40;;;;;;;7.83;5.10;;;;;;;;;;5079550;28;20413;-64
2021/11/28 14:00:06;;;;;;;7.13;5.20;;;;;;;;;;5079870;28;20444;-63
2021/11/28 14:02:33;;;;;;;5.23;4.10;;;;;;;;;;5079603;28;20506;-62
2021/11/28 14:05:03;;;;;;;6.27;5.17;;;;;;;;;;5077007;28;20447;-64
2021/11/28 14:07:37;;;;;;;6.87;5.60;;;;;;;;;;5076871;28;20438;-62
2021/11/28 14:10:10;;;;;;;6.93;5.63;;;;;;;;;;5078270;28;20409;-63
2021/11/28 14:12:37;;;;;;;8.73;5.23;;;;;;;;;;5076899;28;20409;-63
2021/11/28 14:15:03;;;;;;;8.43;5.17;;;;;;;;;;5077531;28;20413;-64
2021/11/28 14:17:30;;;;;;;7.10;5.13;;;;;;;;;;5079793;28;20405;-64
2021/11/28 14:19:57;;;;;;;11.30;5.60;;;;;;;;;;5079518;28;20898;-64
2021/11/28 14:22:34;;;;;;;7.10;5.47;;;;;;;;;;5078985;28;20551;-66
2021/11/28 14:25:19;;;;;;;7.23;5.10;;;;;;;;;;5079595;28;20509;-64
2021/11/28 14:28:04;;;;;;;4.90;4.40;;;;;;;;;;5079716;28;20480;-63
2021/11/28 14:30:30;;;;;;;6.00;5.10;;;;;;;;;;5080235;28;20757;-63
2021/11/28 14:33:03;;;;;;;5.50;4.07;;;;;;;;;;5079904;28;20781;-64
2021/11/28 14:35:29;;;;;;;6.80;4.90;;;;;;;;;;5079478;28;20401;-63
2021/11/28 14:38:15;;;;;;;8.40;5.27;;;;;;;;;;5079425;28;20504;-64
2021/11/28 14:40:42;;;;;;;6.13;4.47;;;;;;;;;;5079251;28;20413;-64
2021/11/28 14:43:08;;;;;;;6.17;5.10;;;;;;;;;;5079366;28;20461;-64
2021/11/28 14:45:35;;;;;;;8.47;5.30;;;;;;;;;;5079193;28;20771;-64
2021/11/28 14:48:21;;;;;;;14.40;4.97;;;;;;;;;;5078048;28;21028;-64
2021/11/28 14:50:54;;;;;;;7.73;4.97;;;;;;;;;;5078656;28;20415;-64
2021/11/28 14:53:22;;;;;;;8.87;5.00;;;;;;;;;;5079586;28;20428;-64
2021/11/28 14:55:49;;;;;;;5.47;4.67;;;;;;;;;;5079120;28;20487;-64
2021/11/28 14:58:34;;;;;;;7.23;4.93;;;;;;;;;;5078492;28;20484;-63